Accueil
METAR-TAF:

METAR-TAF

Aéroports :

Blytheville Municipal Airport

Blytheville, Arkansas, États-Unis

latitude: 35-56-20N, longitude: 089-49-57W, altitude: 78 m

Observation

Le bulletin a été fait il y a 23 minutes, à 01:05 UTC
Vent 18 kt de nord avec des rafales jusqu'à 25 kt
Température -1°C
Humidité 100%
Pression 1027 hPa
Visibilité: 11.3 km
Nuages fragmentés à une hauteur de 1100 ft
Nuages fragmentés à une hauteur de 4700 ft
Ciel couvert à une hauteur de 6000 ft
inconnu

METAR: KHKA 120105Z AUTO 36018G25KT 7SM UP BKN011 BKN047 OVC060 M01/M01 A3032 RMK AO2 P0000 T10061006 $

Heure: 19:28 (01:28 UTC)


TAF: absent

Observations et prévisions météorologiques de plus de 4000 aéroports (messages METAR et TAF).

Les stations disponibles sont représentées par des disques jaunes et rouges sur la carte.

Passer la souris dessus pour voir le nom de la station.

Cliquer dessus pour voir les observations et prévisions météorologiques.

Pour changer de carte: cliquez sur les boutons verts avec une croix noire pour zoomer, sur le bouton vert avec un tiret pour effectuer un zoom arrière, ou sur les flèches vertes pour les cartes adjacentes.


METAR-TAF: